createdAt,value
2019-02-15T00:01:58.350Z,18.73
2019-02-15T00:07:02.003Z,18.03
2019-02-15T00:12:06.003Z,16.53
2019-02-15T00:17:09.659Z,15.37
2019-02-15T00:22:13.317Z,14.97
2019-02-15T00:27:16.946Z,14.93
2019-02-15T00:32:20.528Z,15.90
2019-02-15T00:37:24.122Z,17.50
2019-02-15T00:42:27.781Z,17.87
2019-02-15T00:52:49.585Z,14.40
2019-02-15T00:58:09.759Z,16.67
2019-02-15T01:03:18.145Z,14.03
2019-02-15T01:08:26.615Z,15.03
2019-02-15T01:13:31.318Z,14.47
2019-02-15T01:18:35.051Z,13.33
2019-02-15T01:23:38.714Z,13.77
2019-02-15T01:28:55.886Z,16.07
2019-02-15T01:34:16.450Z,14.67
2019-02-15T01:39:38.087Z,15.07
2019-02-15T01:44:49.339Z,12.70
2019-02-15T01:49:53.017Z,14.50
2019-02-15T01:54:56.606Z,13.63
2019-02-15T02:00:00.246Z,16.37
2019-02-15T02:05:04.466Z,14.00
2019-02-15T02:10:10.381Z,13.13
2019-02-15T02:15:14.375Z,13.83
2019-02-15T02:20:17.966Z,13.77
2019-02-15T02:25:21.901Z,13.20
2019-02-15T02:30:25.663Z,13.47
2019-02-15T02:35:29.222Z,15.93
2019-02-15T02:40:32.822Z,14.13
2019-02-15T02:45:36.453Z,16.37
2019-02-15T02:50:40.034Z,18.97
2019-02-15T02:55:43.624Z,18.93
2019-02-15T03:00:47.281Z,16.97
2019-02-15T03:05:50.925Z,13.97
2019-02-15T03:10:54.512Z,16.23
2019-02-15T03:15:58.093Z,15.73
2019-02-15T03:21:02.076Z,13.83
2019-02-15T03:26:05.743Z,13.07
2019-02-15T03:31:09.401Z,14.60
2019-02-15T03:36:17.472Z,13.57
2019-02-15T03:41:28.494Z,15.73
2019-02-15T03:46:32.370Z,15.17
2019-02-15T03:51:36.018Z,14.23
2019-02-15T03:56:39.861Z,14.40
2019-02-15T04:01:43.574Z,13.60
2019-02-15T04:06:47.173Z,11.70
2019-02-15T04:11:50.745Z,12.53
2019-02-15T04:16:54.686Z,14.27
2019-02-15T04:21:58.642Z,13.77
2019-02-15T04:27:02.231Z,17.27
2019-02-15T04:32:05.822Z,12.30
2019-02-15T04:37:09.827Z,16.43
2019-02-15T04:42:13.411Z,14.70
2019-02-15T04:47:17.384Z,15.03
2019-02-15T04:52:21.304Z,16.13
2019-02-15T04:57:24.911Z,16.03
2019-02-15T05:02:28.479Z,13.40
2019-02-15T05:07:32.144Z,15.50
2019-02-15T05:12:35.725Z,14.43
2019-02-15T05:17:39.382Z,16.07
2019-02-15T05:22:42.986Z,16.30
2019-02-15T05:27:46.562Z,16.67
2019-02-15T05:32:50.146Z,16.10
2019-02-15T05:37:54.102Z,14.33
2019-02-15T05:42:58.006Z,14.90
2019-02-15T05:48:01.589Z,17.43
2019-02-15T05:53:05.594Z,14.60
2019-02-15T05:58:09.183Z,17.27
2019-02-15T06:03:13.811Z,17.50
2019-02-15T06:08:17.561Z,18.03
2019-02-15T06:13:21.606Z,15.50
2019-02-15T06:18:25.189Z,16.07
2019-02-15T06:23:28.791Z,17.37
2019-02-15T06:28:32.368Z,18.57
2019-02-15T06:33:36.035Z,18.93
2019-02-15T06:38:39.994Z,16.13
2019-02-15T06:43:43.593Z,17.40
2019-02-15T06:48:47.548Z,20.83
2019-02-15T06:53:51.138Z,23.63
2019-02-15T06:58:59.139Z,22.23
2019-02-15T07:04:04.358Z,19.40
2019-02-15T07:09:08.317Z,20.00
2019-02-15T07:14:11.900Z,20.37
2019-02-15T07:19:15.553Z,23.10
2019-02-15T07:24:19.152Z,22.20
2019-02-15T07:29:22.764Z,26.80
2019-02-15T07:34:26.341Z,22.97
2019-02-15T07:39:29.945Z,22.85
2019-02-15T07:44:33.582Z,29.83
2019-02-15T07:49:37.494Z,26.87
2019-02-15T07:54:41.427Z,19.77
2019-02-15T07:59:45.013Z,20.80
2019-02-15T08:04:48.598Z,26.27
2019-02-15T08:09:52.190Z,20.43
2019-02-15T08:14:55.844Z,21.00
2019-02-15T08:19:59.429Z,20.37
2019-02-15T08:25:03.369Z,19.10
2019-02-15T08:30:10.195Z,17.37
2019-02-15T08:35:15.757Z,15.87
2019-02-15T08:40:19.346Z,15.00
2019-02-15T08:45:22.934Z,17.77
2019-02-15T08:50:26.593Z,14.13
2019-02-15T08:55:30.174Z,17.67
2019-02-15T09:00:33.822Z,18.77
2019-02-15T09:05:37.422Z,17.27
2019-02-15T09:10:41.388Z,16.60
2019-02-15T09:15:45.389Z,18.33
2019-02-15T09:20:49.066Z,17.00
2019-02-15T09:25:53.082Z,15.17
2019-02-15T09:30:56.745Z,16.03
2019-02-15T09:36:00.337Z,21.23
2019-02-15T09:41:04.026Z,16.30
2019-02-15T09:46:07.689Z,15.10
2019-02-15T09:51:11.277Z,15.13
2019-02-15T09:56:14.864Z,15.70
2019-02-15T10:01:18.527Z,21.87
2019-02-15T10:06:22.534Z,18.40
2019-02-15T10:11:26.150Z,20.47
2019-02-15T10:16:31.418Z,23.93
2019-02-15T10:21:35.155Z,26.90
2019-02-15T10:26:39.149Z,23.43
2019-02-15T10:31:43.078Z,22.53
2019-02-15T10:36:46.670Z,23.07
2019-02-15T10:41:50.408Z,21.00
2019-02-15T10:46:54.024Z,23.57
2019-02-15T10:51:58.006Z,17.47
2019-02-15T10:57:01.939Z,19.87
2019-02-15T11:02:06.143Z,19.70
2019-02-15T11:07:09.733Z,19.13
2019-02-15T11:12:13.728Z,18.83
2019-02-15T11:17:17.387Z,16.63
2019-02-15T11:22:21.049Z,18.20
2019-02-15T11:27:24.723Z,19.40
2019-02-15T11:32:28.380Z,21.53
2019-02-15T11:37:31.974Z,21.13
2019-02-15T11:42:35.565Z,21.37
2019-02-15T11:47:39.229Z,19.80
2019-02-15T11:52:42.898Z,20.80
2019-02-15T11:57:46.494Z,21.83
2019-02-15T12:02:50.457Z,20.53
2019-02-15T12:07:54.050Z,24.60
2019-02-15T12:12:58.111Z,22.20
2019-02-15T12:18:01.769Z,20.17
2019-02-15T12:23:05.436Z,23.00
2019-02-15T12:28:09.175Z,20.93
2019-02-15T12:33:13.110Z,24.03
2019-02-15T12:38:16.710Z,21.00
2019-02-15T12:43:20.309Z,19.50
2019-02-15T12:48:24.239Z,20.50
2019-02-15T12:53:28.323Z,18.97
2019-02-15T12:58:31.909Z,22.37
2019-02-15T13:03:35.838Z,23.67
2019-02-15T13:08:39.818Z,20.43
2019-02-15T13:13:43.409Z,18.92
2019-02-15T13:18:47.005Z,20.35
2019-02-15T13:23:50.671Z,17.45
2019-02-15T13:28:54.881Z,18.67
2019-02-15T13:33:58.831Z,20.05
2019-02-15T13:39:02.502Z,18.23
2019-02-15T13:44:06.186Z,19.85
2019-02-15T13:49:09.795Z,19.33
2019-02-15T13:54:13.386Z,21.73
2019-02-15T13:59:17.320Z,19.80
2019-02-15T14:04:21.061Z,19.07
2019-02-15T14:09:25.133Z,21.60
2019-02-15T14:14:29.251Z,19.10
2019-02-15T14:19:32.830Z,21.37
2019-02-15T14:24:36.429Z,22.70
2019-02-15T14:29:40.413Z,24.90
2019-02-15T14:34:44.075Z,24.43
2019-02-15T14:39:47.668Z,27.77
2019-02-15T14:44:51.267Z,23.17
2019-02-15T14:49:55.004Z,29.40
2019-02-15T14:54:58.944Z,23.03
2019-02-15T15:00:02.613Z,24.40
2019-02-15T15:05:07.042Z,24.70
2019-02-15T15:10:11.578Z,24.33
2019-02-15T15:15:18.152Z,25.03
2019-02-15T15:20:22.035Z,23.20
2019-02-15T15:25:25.705Z,21.13
2019-02-15T15:30:29.302Z,26.60
2019-02-15T15:35:32.926Z,25.20
2019-02-15T15:40:36.509Z,21.97
2019-02-15T15:45:40.117Z,21.90
2019-02-15T15:50:44.169Z,24.00
2019-02-15T15:55:47.840Z,24.07
2019-02-15T16:00:51.500Z,26.70
2019-02-15T16:05:55.098Z,30.93
2019-02-15T16:10:58.830Z,31.53
2019-02-15T16:16:02.835Z,38.77
2019-02-15T16:21:06.421Z,34.53
2019-02-15T16:26:10.022Z,34.07
2019-02-15T16:31:13.617Z,36.20
2019-02-15T16:36:17.219Z,38.63
2019-02-15T16:41:20.978Z,30.80
2019-02-15T16:46:24.576Z,30.07
2019-02-15T16:51:29.182Z,31.70
2019-02-15T16:56:33.153Z,32.63
2019-02-15T17:01:36.810Z,40.47
2019-02-15T17:06:40.458Z,37.63
2019-02-15T17:11:44.165Z,54.97
2019-02-15T17:16:47.829Z,52.77
2019-02-15T17:21:51.418Z,43.60
2019-02-15T17:26:55.174Z,39.07
2019-02-15T17:31:58.963Z,33.80
2019-02-15T17:37:02.555Z,31.60
2019-02-15T17:42:06.299Z,33.80
2019-02-15T17:47:09.915Z,58.27
2019-02-15T17:52:13.503Z,33.53
2019-02-15T17:57:17.534Z,37.40
2019-02-15T18:02:21.122Z,37.40
2019-02-15T18:07:24.712Z,31.17
2019-02-15T18:12:28.712Z,34.73
2019-02-15T18:17:32.306Z,33.27
2019-02-15T18:22:36.226Z,35.97
2019-02-15T18:27:39.953Z,33.03
2019-02-15T18:32:43.690Z,42.23
2019-02-15T18:37:47.640Z,86.63
2019-02-15T18:42:51.307Z,57.07
2019-02-15T18:47:55.262Z,34.57
2019-02-15T18:52:58.920Z,37.33
2019-02-15T18:58:02.559Z,66.47
2019-02-15T19:03:06.406Z,73.30
2019-02-15T19:08:09.988Z,60.60
2019-02-15T19:13:13.647Z,75.17
2019-02-15T19:18:17.239Z,144.77
2019-02-15T19:23:20.917Z,50.57
2019-02-15T19:28:24.503Z,45.87
2019-02-15T19:33:28.157Z,166.33
2019-02-15T19:38:31.746Z,82.17
2019-02-15T19:43:35.773Z,85.80
2019-02-15T19:48:39.788Z,35.13
2019-02-15T19:53:43.382Z,41.17
2019-02-15T19:58:47.363Z,37.93
2019-02-15T20:03:50.955Z,25.53
2019-02-15T20:08:55.618Z,34.80
2019-02-15T20:14:00.091Z,29.77
2019-02-15T20:19:04.007Z,26.23
2019-02-15T20:24:07.597Z,26.33
2019-02-15T20:29:11.190Z,23.50
2019-02-15T20:34:15.054Z,29.40
2019-02-15T20:39:18.641Z,31.37
2019-02-15T20:44:22.234Z,23.17
2019-02-15T20:49:25.823Z,22.90
2019-02-15T20:54:29.414Z,23.87
2019-02-15T20:59:33.386Z,28.67
2019-02-15T21:04:37.326Z,23.27
2019-02-15T21:09:40.909Z,25.30
2019-02-15T21:14:44.498Z,22.50
2019-02-15T21:19:48.100Z,24.23
2019-02-15T21:24:51.990Z,25.27
2019-02-15T21:29:55.944Z,24.70
2019-02-15T21:34:59.607Z,24.83
2019-02-15T21:40:03.202Z,24.70
2019-02-15T21:45:09.441Z,21.33
2019-02-15T21:50:17.285Z,23.63
2019-02-15T21:55:18.554Z,22.57
2019-02-15T22:00:24.249Z,23.17
2019-02-15T22:05:27.911Z,49.63
2019-02-15T22:10:31.495Z,20.97
2019-02-15T22:15:35.121Z,23.33
2019-02-15T22:20:38.719Z,20.57
2019-02-15T22:25:42.323Z,25.90
2019-02-15T22:30:45.977Z,25.77
2019-02-15T22:35:49.922Z,24.33
2019-02-15T22:40:56.659Z,21.90
2019-02-15T22:46:00.652Z,20.97
2019-02-15T22:51:04.678Z,19.20
2019-02-15T22:56:08.553Z,20.77
2019-02-15T23:01:14.796Z,22.87
2019-02-15T23:06:18.688Z,17.67
2019-02-15T23:11:23.257Z,18.33
2019-02-15T23:16:26.842Z,21.80
2019-02-15T23:21:30.428Z,19.83
2019-02-15T23:26:34.035Z,20.20
2019-02-15T23:31:37.642Z,24.67
2019-02-15T23:36:41.575Z,18.40
2019-02-15T23:41:45.157Z,18.93
2019-02-15T23:46:48.861Z,16.10
2019-02-15T23:51:52.462Z,17.90
2019-02-15T23:56:56.057Z,19.40
